sensor_id;sensor_type;location;lat;lon;timestamp;temperature;humidity
1716;DHT22;855;48.824;9.220;2024-03-22T00:02:07;10.80;92.50
1716;DHT22;855;48.824;9.220;2024-03-22T00:04:34;10.90;92.20
1716;DHT22;855;48.824;9.220;2024-03-22T00:07:00;10.80;92.00
1716;DHT22;855;48.824;9.220;2024-03-22T00:09:26;10.80;92.20
1716;DHT22;855;48.824;9.220;2024-03-22T00:11:52;10.70;92.30
1716;DHT22;855;48.824;9.220;2024-03-22T00:14:19;10.80;92.20
1716;DHT22;855;48.824;9.220;2024-03-22T00:16:46;10.70;92.00
1716;DHT22;855;48.824;9.220;2024-03-22T00:19:13;10.70;92.10
1716;DHT22;855;48.824;9.220;2024-03-22T00:21:39;10.60;92.20
1716;DHT22;855;48.824;9.220;2024-03-22T00:24:06;10.60;92.00
1716;DHT22;855;48.824;9.220;2024-03-22T00:26:32;10.60;91.90
1716;DHT22;855;48.824;9.220;2024-03-22T00:28:59;10.60;91.90
1716;DHT22;855;48.824;9.220;2024-03-22T00:31:25;10.60;91.90
1716;DHT22;855;48.824;9.220;2024-03-22T00:33:53;10.60;91.70
1716;DHT22;855;48.824;9.220;2024-03-22T00:36:19;10.40;91.60
1716;DHT22;855;48.824;9.220;2024-03-22T00:38:46;10.40;91.90
1716;DHT22;855;48.824;9.220;2024-03-22T00:41:12;10.30;92.00
1716;DHT22;855;48.824;9.220;2024-03-22T00:43:39;10.20;92.40
1716;DHT22;855;48.824;9.220;2024-03-22T00:46:05;10.20;92.40
1716;DHT22;855;48.824;9.220;2024-03-22T00:48:33;10.20;92.40
1716;DHT22;855;48.824;9.220;2024-03-22T00:51:02;10.20;92.50
1716;DHT22;855;48.824;9.220;2024-03-22T00:53:29;10.10;92.30
1716;DHT22;855;48.824;9.220;2024-03-22T00:55:55;10.10;92.60
1716;DHT22;855;48.824;9.220;2024-03-22T00:58:25;10.10;92.40
1716;DHT22;855;48.824;9.220;2024-03-22T01:00:51;10.00;92.60
1716;DHT22;855;48.824;9.220;2024-03-22T01:03:17;10.00;92.70
1716;DHT22;855;48.824;9.220;2024-03-22T01:05:43;9.90;92.70
1716;DHT22;855;48.824;9.220;2024-03-22T01:08:11;9.90;92.80
1716;DHT22;855;48.824;9.220;2024-03-22T01:10:37;9.80;92.90
1716;DHT22;855;48.824;9.220;2024-03-22T01:13:04;9.80;93.00
1716;DHT22;855;48.824;9.220;2024-03-22T01:15:30;9.50;93.20
1716;DHT22;855;48.824;9.220;2024-03-22T01:17:56;9.50;93.60
1716;DHT22;855;48.824;9.220;2024-03-22T01:20:22;9.50;93.70
1716;DHT22;855;48.824;9.220;2024-03-22T01:22:49;9.40;93.90
1716;DHT22;855;48.824;9.220;2024-03-22T01:25:16;9.30;93.90
1716;DHT22;855;48.824;9.220;2024-03-22T01:27:43;9.30;93.90
1716;DHT22;855;48.824;9.220;2024-03-22T01:30:10;9.40;93.70
1716;DHT22;855;48.824;9.220;2024-03-22T01:32:37;9.40;93.60
1716;DHT22;855;48.824;9.220;2024-03-22T01:35:03;9.40;93.50
1716;DHT22;855;48.824;9.220;2024-03-22T01:37:30;9.30;93.50
1716;DHT22;855;48.824;9.220;2024-03-22T01:39:56;9.20;93.70
1716;DHT22;855;48.824;9.220;2024-03-22T01:42:24;9.10;94.20
1716;DHT22;855;48.824;9.220;2024-03-22T01:44:50;9.10;94.40
1716;DHT22;855;48.824;9.220;2024-03-22T01:47:17;9.10;94.60
1716;DHT22;855;48.824;9.220;2024-03-22T01:49:43;9.10;94.50
1716;DHT22;855;48.824;9.220;2024-03-22T01:52:10;9.10;94.40
1716;DHT22;855;48.824;9.220;2024-03-22T01:54:36;9.00;94.40
1716;DHT22;855;48.824;9.220;2024-03-22T01:57:03;9.00;94.30
1716;DHT22;855;48.824;9.220;2024-03-22T01:59:30;9.00;94.30
1716;DHT22;855;48.824;9.220;2024-03-22T02:01:59;9.00;94.30
1716;DHT22;855;48.824;9.220;2024-03-22T02:04:25;9.00;94.20
1716;DHT22;855;48.824;9.220;2024-03-22T02:06:52;9.00;94.00
1716;DHT22;855;48.824;9.220;2024-03-22T02:09:18;9.00;93.90
1716;DHT22;855;48.824;9.220;2024-03-22T02:11:46;9.00;93.80
1716;DHT22;855;48.824;9.220;2024-03-22T02:14:12;9.00;93.70
1716;DHT22;855;48.824;9.220;2024-03-22T02:16:41;8.90;93.50
1716;DHT22;855;48.824;9.220;2024-03-22T02:19:07;8.90;93.70
1716;DHT22;855;48.824;9.220;2024-03-22T02:21:34;8.80;93.70
1716;DHT22;855;48.824;9.220;2024-03-22T02:24:01;8.80;93.70
1716;DHT22;855;48.824;9.220;2024-03-22T02:26:28;8.70;94.00
1716;DHT22;855;48.824;9.220;2024-03-22T02:28:54;8.70;94.10
1716;DHT22;855;48.824;9.220;2024-03-22T02:31:21;8.70;94.10
1716;DHT22;855;48.824;9.220;2024-03-22T02:33:46;8.70;94.00
1716;DHT22;855;48.824;9.220;2024-03-22T02:36:13;8.60;94.00
1716;DHT22;855;48.824;9.220;2024-03-22T02:38:39;8.50;94.20
1716;DHT22;855;48.824;9.220;2024-03-22T02:41:07;8.50;94.30
1716;DHT22;855;48.824;9.220;2024-03-22T02:43:33;8.40;94.40
1716;DHT22;855;48.824;9.220;2024-03-22T02:46:00;8.40;94.40
1716;DHT22;855;48.824;9.220;2024-03-22T02:48:25;8.40;94.60
1716;DHT22;855;48.824;9.220;2024-03-22T02:50:55;8.40;94.50
1716;DHT22;855;48.824;9.220;2024-03-22T02:53:21;8.40;94.30
1716;DHT22;855;48.824;9.220;2024-03-22T02:55:48;8.30;94.30
1716;DHT22;855;48.824;9.220;2024-03-22T02:58:18;8.30;94.20
1716;DHT22;855;48.824;9.220;2024-03-22T03:00:45;8.30;94.40
1716;DHT22;855;48.824;9.220;2024-03-22T03:03:11;8.30;94.50
1716;DHT22;855;48.824;9.220;2024-03-22T03:05:38;8.20;94.60
1716;DHT22;855;48.824;9.220;2024-03-22T03:08:04;8.20;95.10
1716;DHT22;855;48.824;9.220;2024-03-22T03:10:31;8.10;95.20
1716;DHT22;855;48.824;9.220;2024-03-22T03:12:56;8.10;95.30
1716;DHT22;855;48.824;9.220;2024-03-22T03:15:25;8.20;95.30
1716;DHT22;855;48.824;9.220;2024-03-22T03:17:50;8.20;95.20
1716;DHT22;855;48.824;9.220;2024-03-22T03:20:18;8.30;95.30
1716;DHT22;855;48.824;9.220;2024-03-22T03:22:44;8.40;95.20
1716;DHT22;855;48.824;9.220;2024-03-22T03:25:10;8.40;94.90
1716;DHT22;855;48.824;9.220;2024-03-22T03:27:36;8.50;94.70
1716;DHT22;855;48.824;9.220;2024-03-22T03:30:04;8.40;94.80
1716;DHT22;855;48.824;9.220;2024-03-22T03:32:31;8.40;95.20
1716;DHT22;855;48.824;9.220;2024-03-22T03:34:58;8.40;95.30
1716;DHT22;855;48.824;9.220;2024-03-22T03:37:24;8.30;95.60
1716;DHT22;855;48.824;9.220;2024-03-22T03:39:51;8.40;95.80
1716;DHT22;855;48.824;9.220;2024-03-22T03:42:17;8.40;95.80
1716;DHT22;855;48.824;9.220;2024-03-22T03:44:44;8.40;95.90
1716;DHT22;855;48.824;9.220;2024-03-22T03:47:09;8.40;95.80
1716;DHT22;855;48.824;9.220;2024-03-22T03:49:37;8.50;95.60
1716;DHT22;855;48.824;9.220;2024-03-22T03:52:04;8.50;95.30
1716;DHT22;855;48.824;9.220;2024-03-22T03:54:30;8.50;95.00
1716;DHT22;855;48.824;9.220;2024-03-22T03:56:56;8.60;94.80
1716;DHT22;855;48.824;9.220;2024-03-22T03:59:23;8.60;94.50
1716;DHT22;855;48.824;9.220;2024-03-22T04:01:49;8.50;94.60
1716;DHT22;855;48.824;9.220;2024-03-22T04:04:16;8.50;95.20
1716;DHT22;855;48.824;9.220;2024-03-22T04:06:44;8.50;95.30
1716;DHT22;855;48.824;9.220;2024-03-22T04:09:11;8.60;95.10
1716;DHT22;855;48.824;9.220;2024-03-22T04:11:36;8.60;94.80
1716;DHT22;855;48.824;9.220;2024-03-22T04:14:04;8.70;94.70
1716;DHT22;855;48.824;9.220;2024-03-22T04:16:30;8.70;94.60
1716;DHT22;855;48.824;9.220;2024-03-22T04:18:57;8.50;94.30
1716;DHT22;855;48.824;9.220;2024-03-22T04:21:23;8.40;94.60
1716;DHT22;855;48.824;9.220;2024-03-22T04:23:51;8.50;94.70
1716;DHT22;855;48.824;9.220;2024-03-22T04:26:17;8.50;94.60
1716;DHT22;855;48.824;9.220;2024-03-22T04:28:44;8.50;94.60
1716;DHT22;855;48.824;9.220;2024-03-22T04:31:10;8.50;94.50
1716;DHT22;855;48.824;9.220;2024-03-22T04:33:37;8.50;94.40
1716;DHT22;855;48.824;9.220;2024-03-22T04:36:04;8.60;94.10
1716;DHT22;855;48.824;9.220;2024-03-22T04:38:31;8.50;94.20
1716;DHT22;855;48.824;9.220;2024-03-22T04:40:59;8.60;94.50
1716;DHT22;855;48.824;9.220;2024-03-22T04:43:27;8.60;94.60
1716;DHT22;855;48.824;9.220;2024-03-22T04:45:54;8.60;94.70
1716;DHT22;855;48.824;9.220;2024-03-22T04:48:21;8.50;94.90
1716;DHT22;855;48.824;9.220;2024-03-22T04:50:48;8.60;95.10
1716;DHT22;855;48.824;9.220;2024-03-22T04:53:16;8.60;95.20
1716;DHT22;855;48.824;9.220;2024-03-22T04:55:42;8.50;95.40
1716;DHT22;855;48.824;9.220;2024-03-22T04:58:13;8.40;95.70
1716;DHT22;855;48.824;9.220;2024-03-22T05:00:38;8.50;95.80
1716;DHT22;855;48.824;9.220;2024-03-22T05:03:05;8.50;95.90
1716;DHT22;855;48.824;9.220;2024-03-22T05:05:31;8.50;96.00
1716;DHT22;855;48.824;9.220;2024-03-22T05:07:58;8.50;95.90
1716;DHT22;855;48.824;9.220;2024-03-22T05:10:24;8.60;95.80
1716;DHT22;855;48.824;9.220;2024-03-22T05:12:50;8.60;95.70
1716;DHT22;855;48.824;9.220;2024-03-22T05:15:18;8.60;95.70
1716;DHT22;855;48.824;9.220;2024-03-22T05:17:45;8.70;95.60
1716;DHT22;855;48.824;9.220;2024-03-22T05:20:11;8.70;95.50
1716;DHT22;855;48.824;9.220;2024-03-22T05:22:38;8.60;95.30
1716;DHT22;855;48.824;9.220;2024-03-22T05:25:04;8.50;95.30
1716;DHT22;855;48.824;9.220;2024-03-22T05:27:32;8.50;95.40
1716;DHT22;855;48.824;9.220;2024-03-22T05:29:58;8.60;95.50
1716;DHT22;855;48.824;9.220;2024-03-22T05:32:26;8.60;95.40
1716;DHT22;855;48.824;9.220;2024-03-22T05:34:53;8.60;95.30
1716;DHT22;855;48.824;9.220;2024-03-22T05:37:20;8.60;95.30
1716;DHT22;855;48.824;9.220;2024-03-22T05:39:45;8.60;95.30
1716;DHT22;855;48.824;9.220;2024-03-22T05:42:12;8.70;95.20
1716;DHT22;855;48.824;9.220;2024-03-22T05:44:38;8.70;95.10
1716;DHT22;855;48.824;9.220;2024-03-22T05:47:05;8.70;95.10
1716;DHT22;855;48.824;9.220;2024-03-22T05:49:32;8.80;95.20
1716;DHT22;855;48.824;9.220;2024-03-22T05:51:59;8.90;94.90
1716;DHT22;855;48.824;9.220;2024-03-22T05:54:25;9.00;94.70
1716;DHT22;855;48.824;9.220;2024-03-22T05:56:52;9.00;94.60
1716;DHT22;855;48.824;9.220;2024-03-22T05:59:17;9.10;94.40
1716;DHT22;855;48.824;9.220;2024-03-22T06:01:44;9.10;94.20
1716;DHT22;855;48.824;9.220;2024-03-22T06:04:10;9.10;94.10
1716;DHT22;855;48.824;9.220;2024-03-22T06:06:38;9.20;94.00
1716;DHT22;855;48.824;9.220;2024-03-22T06:09:04;9.30;93.60
1716;DHT22;855;48.824;9.220;2024-03-22T06:11:34;9.30;93.60
1716;DHT22;855;48.824;9.220;2024-03-22T06:14:00;9.30;93.40
1716;DHT22;855;48.824;9.220;2024-03-22T06:16:27;9.40;93.50
1716;DHT22;855;48.824;9.220;2024-03-22T06:18:53;9.40;93.50
1716;DHT22;855;48.824;9.220;2024-03-22T06:21:20;9.40;93.30
1716;DHT22;855;48.824;9.220;2024-03-22T06:23:49;9.50;93.40
1716;DHT22;855;48.824;9.220;2024-03-22T06:26:16;9.50;93.30
1716;DHT22;855;48.824;9.220;2024-03-22T06:28:42;9.60;92.90
1716;DHT22;855;48.824;9.220;2024-03-22T06:31:09;9.70;92.70
1716;DHT22;855;48.824;9.220;2024-03-22T06:33:35;9.80;92.70
1716;DHT22;855;48.824;9.220;2024-03-22T06:36:02;9.90;92.60
1716;DHT22;855;48.824;9.220;2024-03-22T06:38:28;10.00;92.60
1716;DHT22;855;48.824;9.220;2024-03-22T06:40:57;10.10;92.40
1716;DHT22;855;48.824;9.220;2024-03-22T06:43:24;10.20;92.20
1716;DHT22;855;48.824;9.220;2024-03-22T06:45:51;10.30;92.00
1716;DHT22;855;48.824;9.220;2024-03-22T06:48:17;10.50;91.20
1716;DHT22;855;48.824;9.220;2024-03-22T06:50:44;10.60;91.10
1716;DHT22;855;48.824;9.220;2024-03-22T06:53:09;10.70;90.90
1716;DHT22;855;48.824;9.220;2024-03-22T06:55:36;10.80;90.60
1716;DHT22;855;48.824;9.220;2024-03-22T06:58:04;11.00;90.30
1716;DHT22;855;48.824;9.220;2024-03-22T07:00:30;10.90;90.10
1716;DHT22;855;48.824;9.220;2024-03-22T07:02:56;10.90;90.10
1716;DHT22;855;48.824;9.220;2024-03-22T07:05:25;11.00;90.40
1716;DHT22;855;48.824;9.220;2024-03-22T07:07:51;11.10;90.50
1716;DHT22;855;48.824;9.220;2024-03-22T07:10:21;11.30;90.30
1716;DHT22;855;48.824;9.220;2024-03-22T07:12:47;11.40;89.40
1716;DHT22;855;48.824;9.220;2024-03-22T07:15:16;11.40;87.80
1716;DHT22;855;48.824;9.220;2024-03-22T07:17:42;11.50;87.80
1716;DHT22;855;48.824;9.220;2024-03-22T07:20:09;11.70;87.50
1716;DHT22;855;48.824;9.220;2024-03-22T07:22:35;11.80;87.10
1716;DHT22;855;48.824;9.220;2024-03-22T07:25:02;11.90;86.60
1716;DHT22;855;48.824;9.220;2024-03-22T07:27:28;12.00;85.30
1716;DHT22;855;48.824;9.220;2024-03-22T07:29:56;12.10;86.00
1716;DHT22;855;48.824;9.220;2024-03-22T07:32:24;12.20;85.00
1716;DHT22;855;48.824;9.220;2024-03-22T07:34:50;12.20;84.60
1716;DHT22;855;48.824;9.220;2024-03-22T07:37:16;12.20;84.10
1716;DHT22;855;48.824;9.220;2024-03-22T07:39:43;12.40;84.00
1716;DHT22;855;48.824;9.220;2024-03-22T07:42:09;12.40;82.90
1716;DHT22;855;48.824;9.220;2024-03-22T07:44:35;12.50;83.60
1716;DHT22;855;48.824;9.220;2024-03-22T07:47:01;12.70;84.10
1716;DHT22;855;48.824;9.220;2024-03-22T07:49:29;12.80;82.30
1716;DHT22;855;48.824;9.220;2024-03-22T07:51:57;12.90;82.50
1716;DHT22;855;48.824;9.220;2024-03-22T07:54:24;13.10;81.70
1716;DHT22;855;48.824;9.220;2024-03-22T07:56:49;13.30;81.60
1716;DHT22;855;48.824;9.220;2024-03-22T07:59:16;13.50;80.40
1716;DHT22;855;48.824;9.220;2024-03-22T08:01:42;13.60;79.90
1716;DHT22;855;48.824;9.220;2024-03-22T08:04:09;13.70;79.00
1716;DHT22;855;48.824;9.220;2024-03-22T08:06:36;13.90;78.60
1716;DHT22;855;48.824;9.220;2024-03-22T08:09:03;14.00;78.20
1716;DHT22;855;48.824;9.220;2024-03-22T08:11:29;14.20;77.50
1716;DHT22;855;48.824;9.220;2024-03-22T08:13:56;14.30;77.10
1716;DHT22;855;48.824;9.220;2024-03-22T08:16:27;14.40;77.60
1716;DHT22;855;48.824;9.220;2024-03-22T08:18:54;14.60;76.20
1716;DHT22;855;48.824;9.220;2024-03-22T08:21:20;14.80;75.50
1716;DHT22;855;48.824;9.220;2024-03-22T08:23:48;14.90;74.70
1716;DHT22;855;48.824;9.220;2024-03-22T08:26:14;15.00;75.30
1716;DHT22;855;48.824;9.220;2024-03-22T08:28:41;15.20;74.10
1716;DHT22;855;48.824;9.220;2024-03-22T08:31:07;15.40;73.80
1716;DHT22;855;48.824;9.220;2024-03-22T08:33:33;15.40;72.90
1716;DHT22;855;48.824;9.220;2024-03-22T08:35:59;15.40;73.30
1716;DHT22;855;48.824;9.220;2024-03-22T08:38:27;15.50;72.70
1716;DHT22;855;48.824;9.220;2024-03-22T08:40:54;15.60;72.90
1716;DHT22;855;48.824;9.220;2024-03-22T08:43:21;15.60;73.30
1716;DHT22;855;48.824;9.220;2024-03-22T08:45:51;15.60;72.60
1716;DHT22;855;48.824;9.220;2024-03-22T08:48:18;15.80;73.00
1716;DHT22;855;48.824;9.220;2024-03-22T08:50:44;16.00;72.20
1716;DHT22;855;48.824;9.220;2024-03-22T08:53:11;16.10;71.70
1716;DHT22;855;48.824;9.220;2024-03-22T08:55:37;16.20;71.70
1716;DHT22;855;48.824;9.220;2024-03-22T08:58:05;16.40;70.90
1716;DHT22;855;48.824;9.220;2024-03-22T09:00:31;16.50;70.50
1716;DHT22;855;48.824;9.220;2024-03-22T09:02:59;16.70;70.00
1716;DHT22;855;48.824;9.220;2024-03-22T09:05:24;16.90;69.30
1716;DHT22;855;48.824;9.220;2024-03-22T09:07:52;17.00;68.50
1716;DHT22;855;48.824;9.220;2024-03-22T09:10:21;17.20;68.60
1716;DHT22;855;48.824;9.220;2024-03-22T09:12:48;17.30;66.90
1716;DHT22;855;48.824;9.220;2024-03-22T09:15:15;17.30;67.20
1716;DHT22;855;48.824;9.220;2024-03-22T09:17:42;17.40;66.50
1716;DHT22;855;48.824;9.220;2024-03-22T09:20:09;17.30;66.50
1716;DHT22;855;48.824;9.220;2024-03-22T09:22:36;17.30;66.80
1716;DHT22;855;48.824;9.220;2024-03-22T09:25:02;17.20;67.30
1716;DHT22;855;48.824;9.220;2024-03-22T09:27:29;17.10;67.90
1716;DHT22;855;48.824;9.220;2024-03-22T09:29:54;17.20;67.70
1716;DHT22;855;48.824;9.220;2024-03-22T09:32:23;17.30;67.70
1716;DHT22;855;48.824;9.220;2024-03-22T09:34:49;17.30;66.70
1716;DHT22;855;48.824;9.220;2024-03-22T09:37:16;17.50;66.70
1716;DHT22;855;48.824;9.220;2024-03-22T09:39:43;17.70;66.30
1716;DHT22;855;48.824;9.220;2024-03-22T09:42:15;17.90;64.30
1716;DHT22;855;48.824;9.220;2024-03-22T09:44:43;17.90;62.70
1716;DHT22;855;48.824;9.220;2024-03-22T09:47:12;17.90;62.70
1716;DHT22;855;48.824;9.220;2024-03-22T09:49:41;18.10;61.90
1716;DHT22;855;48.824;9.220;2024-03-22T09:52:12;18.10;60.80
1716;DHT22;855;48.824;9.220;2024-03-22T09:54:38;18.20;61.80
1716;DHT22;855;48.824;9.220;2024-03-22T09:57:05;18.20;61.50
1716;DHT22;855;48.824;9.220;2024-03-22T09:59:32;18.20;60.40
1716;DHT22;855;48.824;9.220;2024-03-22T10:01:59;18.30;61.20
1716;DHT22;855;48.824;9.220;2024-03-22T10:04:26;18.60;60.10
1716;DHT22;855;48.824;9.220;2024-03-22T10:06:54;18.80;59.90
1716;DHT22;855;48.824;9.220;2024-03-22T10:09:28;19.10;60.00
1716;DHT22;855;48.824;9.220;2024-03-22T10:11:55;19.20;60.60
1716;DHT22;855;48.824;9.220;2024-03-22T10:14:21;19.20;57.50
1716;DHT22;855;48.824;9.220;2024-03-22T10:16:50;19.00;57.80
1716;DHT22;855;48.824;9.220;2024-03-22T10:19:18;18.90;58.70
1716;DHT22;855;48.824;9.220;2024-03-22T10:21:46;19.10;58.80
1716;DHT22;855;48.824;9.220;2024-03-22T10:24:14;19.40;57.20
1716;DHT22;855;48.824;9.220;2024-03-22T10:26:40;19.40;57.20
1716;DHT22;855;48.824;9.220;2024-03-22T10:29:06;19.40;56.40
1716;DHT22;855;48.824;9.220;2024-03-22T10:31:35;19.40;56.40
1716;DHT22;855;48.824;9.220;2024-03-22T10:34:02;19.60;55.70
1716;DHT22;855;48.824;9.220;2024-03-22T10:36:31;19.40;55.80
1716;DHT22;855;48.824;9.220;2024-03-22T10:38:58;19.50;56.00
1716;DHT22;855;48.824;9.220;2024-03-22T10:41:26;19.50;54.70
1716;DHT22;855;48.824;9.220;2024-03-22T10:43:52;19.70;54.20
1716;DHT22;855;48.824;9.220;2024-03-22T10:46:20;20.00;53.70
1716;DHT22;855;48.824;9.220;2024-03-22T10:48:46;20.10;50.80
1716;DHT22;855;48.824;9.220;2024-03-22T10:51:14;20.20;49.90
1716;DHT22;855;48.824;9.220;2024-03-22T10:53:41;20.30;51.20
1716;DHT22;855;48.824;9.220;2024-03-22T10:56:09;20.30;50.60
1716;DHT22;855;48.824;9.220;2024-03-22T10:58:39;20.40;49.60
1716;DHT22;855;48.824;9.220;2024-03-22T11:01:21;20.30;49.80
1716;DHT22;855;48.824;9.220;2024-03-22T11:03:47;20.40;50.70
1716;DHT22;855;48.824;9.220;2024-03-22T11:06:18;20.40;50.20
1716;DHT22;855;48.824;9.220;2024-03-22T11:08:44;20.40;49.90
1716;DHT22;855;48.824;9.220;2024-03-22T11:11:12;20.70;50.40
1716;DHT22;855;48.824;9.220;2024-03-22T11:13:40;20.80;50.20
1716;DHT22;855;48.824;9.220;2024-03-22T11:16:09;20.70;49.60
1716;DHT22;855;48.824;9.220;2024-03-22T11:18:35;20.30;49.40
1716;DHT22;855;48.824;9.220;2024-03-22T11:21:03;20.30;50.70
1716;DHT22;855;48.824;9.220;2024-03-22T11:23:29;20.40;51.40
1716;DHT22;855;48.824;9.220;2024-03-22T11:25:56;20.40;50.80
1716;DHT22;855;48.824;9.220;2024-03-22T11:28:22;20.30;51.20
1716;DHT22;855;48.824;9.220;2024-03-22T11:30:50;20.40;51.60
1716;DHT22;855;48.824;9.220;2024-03-22T11:33:16;20.40;51.40
1716;DHT22;855;48.824;9.220;2024-03-22T11:35:44;20.50;52.60
1716;DHT22;855;48.824;9.220;2024-03-22T11:38:10;20.60;51.80
1716;DHT22;855;48.824;9.220;2024-03-22T11:40:37;20.60;51.70
1716;DHT22;855;48.824;9.220;2024-03-22T11:43:03;20.60;52.10
1716;DHT22;855;48.824;9.220;2024-03-22T11:45:31;20.80;50.80
1716;DHT22;855;48.824;9.220;2024-03-22T11:48:03;21.00;50.30
1716;DHT22;855;48.824;9.220;2024-03-22T11:50:32;21.20;49.70
1716;DHT22;855;48.824;9.220;2024-03-22T11:52:57;21.10;49.80
1716;DHT22;855;48.824;9.220;2024-03-22T11:55:27;21.10;48.90
1716;DHT22;855;48.824;9.220;2024-03-22T11:57:53;21.00;48.90
1716;DHT22;855;48.824;9.220;2024-03-22T12:00:20;20.90;48.90
1716;DHT22;855;48.824;9.220;2024-03-22T12:02:48;20.70;48.80
1716;DHT22;855;48.824;9.220;2024-03-22T12:05:17;20.60;49.40
1716;DHT22;855;48.824;9.220;2024-03-22T12:07:44;20.60;49.30
1716;DHT22;855;48.824;9.220;2024-03-22T12:10:11;20.90;48.70
1716;DHT22;855;48.824;9.220;2024-03-22T12:12:37;21.10;48.10
1716;DHT22;855;48.824;9.220;2024-03-22T12:15:05;21.30;49.40
1716;DHT22;855;48.824;9.220;2024-03-22T12:17:31;21.50;47.90
1716;DHT22;855;48.824;9.220;2024-03-22T12:19:59;21.70;47.30
1716;DHT22;855;48.824;9.220;2024-03-22T12:22:26;21.90;45.70
1716;DHT22;855;48.824;9.220;2024-03-22T12:24:53;22.10;45.60
1716;DHT22;855;48.824;9.220;2024-03-22T12:27:18;22.20;44.20
1716;DHT22;855;48.824;9.220;2024-03-22T12:29:45;22.30;43.80
1716;DHT22;855;48.824;9.220;2024-03-22T12:32:11;22.50;43.50
1716;DHT22;855;48.824;9.220;2024-03-22T12:34:38;22.40;43.30
1716;DHT22;855;48.824;9.220;2024-03-22T12:37:04;22.50;43.60
1716;DHT22;855;48.824;9.220;2024-03-22T12:39:32;22.40;43.70
1716;DHT22;855;48.824;9.220;2024-03-22T12:41:58;22.30;44.10
1716;DHT22;855;48.824;9.220;2024-03-22T12:44:25;22.10;45.10
1716;DHT22;855;48.824;9.220;2024-03-22T12:46:51;22.00;45.00
1716;DHT22;855;48.824;9.220;2024-03-22T12:49:20;22.00;44.50
1716;DHT22;855;48.824;9.220;2024-03-22T12:51:45;22.00;45.20
1716;DHT22;855;48.824;9.220;2024-03-22T12:54:13;22.10;45.30
1716;DHT22;855;48.824;9.220;2024-03-22T12:56:41;22.00;45.00
1716;DHT22;855;48.824;9.220;2024-03-22T12:59:08;21.70;45.00
1716;DHT22;855;48.824;9.220;2024-03-22T13:01:34;21.70;45.10
1716;DHT22;855;48.824;9.220;2024-03-22T13:04:02;21.90;45.10
1716;DHT22;855;48.824;9.220;2024-03-22T13:06:28;22.20;45.30
1716;DHT22;855;48.824;9.220;2024-03-22T13:08:54;22.50;44.60
1716;DHT22;855;48.824;9.220;2024-03-22T13:11:20;22.70;45.30
1716;DHT22;855;48.824;9.220;2024-03-22T13:13:49;22.70;43.80
1716;DHT22;855;48.824;9.220;2024-03-22T13:16:14;22.50;45.50
1716;DHT22;855;48.824;9.220;2024-03-22T13:18:42;22.30;46.00
1716;DHT22;855;48.824;9.220;2024-03-22T13:21:08;22.10;45.80
1716;DHT22;855;48.824;9.220;2024-03-22T13:23:35;22.00;46.30
1716;DHT22;855;48.824;9.220;2024-03-22T13:26:03;21.90;46.70
1716;DHT22;855;48.824;9.220;2024-03-22T13:28:30;22.00;47.10
1716;DHT22;855;48.824;9.220;2024-03-22T13:31:01;22.20;46.30
1716;DHT22;855;48.824;9.220;2024-03-22T13:33:29;22.30;45.30
1716;DHT22;855;48.824;9.220;2024-03-22T13:35:55;22.60;45.30
1716;DHT22;855;48.824;9.220;2024-03-22T13:38:22;22.60;44.50
1716;DHT22;855;48.824;9.220;2024-03-22T13:40:54;22.50;45.30
1716;DHT22;855;48.824;9.220;2024-03-22T13:43:21;22.40;44.70
1716;DHT22;855;48.824;9.220;2024-03-22T13:45:50;22.40;45.30
1716;DHT22;855;48.824;9.220;2024-03-22T13:48:21;22.30;45.30
1716;DHT22;855;48.824;9.220;2024-03-22T13:50:50;22.30;45.20
1716;DHT22;855;48.824;9.220;2024-03-22T13:53:17;22.00;47.00
1716;DHT22;855;48.824;9.220;2024-03-22T13:55:42;21.60;47.70
1716;DHT22;855;48.824;9.220;2024-03-22T13:58:09;21.30;48.90
1716;DHT22;855;48.824;9.220;2024-03-22T14:00:35;21.20;48.90
1716;DHT22;855;48.824;9.220;2024-03-22T14:03:03;21.00;50.10
1716;DHT22;855;48.824;9.220;2024-03-22T14:05:30;20.80;49.60
1716;DHT22;855;48.824;9.220;2024-03-22T14:07:58;20.70;49.60
1716;DHT22;855;48.824;9.220;2024-03-22T14:10:24;20.60;50.10
1716;DHT22;855;48.824;9.220;2024-03-22T14:12:53;20.70;51.10
1716;DHT22;855;48.824;9.220;2024-03-22T14:15:19;20.80;49.90
1716;DHT22;855;48.824;9.220;2024-03-22T14:17:46;20.80;49.90
1716;DHT22;855;48.824;9.220;2024-03-22T14:20:11;20.50;50.20
1716;DHT22;855;48.824;9.220;2024-03-22T14:22:40;20.50;51.20
1716;DHT22;855;48.824;9.220;2024-03-22T14:25:07;20.50;51.30
1716;DHT22;855;48.824;9.220;2024-03-22T14:27:34;20.30;51.70
1716;DHT22;855;48.824;9.220;2024-03-22T14:30:00;20.20;51.30
1716;DHT22;855;48.824;9.220;2024-03-22T14:32:30;20.10;51.80
1716;DHT22;855;48.824;9.220;2024-03-22T14:34:56;20.10;50.70
1716;DHT22;855;48.824;9.220;2024-03-22T14:37:23;20.20;49.80
1716;DHT22;855;48.824;9.220;2024-03-22T14:39:50;20.10;48.60
1716;DHT22;855;48.824;9.220;2024-03-22T14:42:17;20.20;49.60
1716;DHT22;855;48.824;9.220;2024-03-22T14:44:43;20.10;46.60
1716;DHT22;855;48.824;9.220;2024-03-22T14:47:10;20.10;46.30
1716;DHT22;855;48.824;9.220;2024-03-22T14:49:35;20.20;46.00
1716;DHT22;855;48.824;9.220;2024-03-22T14:52:02;20.10;45.70
1716;DHT22;855;48.824;9.220;2024-03-22T14:54:28;20.10;45.30
1716;DHT22;855;48.824;9.220;2024-03-22T14:56:57;20.10;44.80
1716;DHT22;855;48.824;9.220;2024-03-22T14:59:26;20.00;45.20
1716;DHT22;855;48.824;9.220;2024-03-22T15:01:53;20.00;45.10
1716;DHT22;855;48.824;9.220;2024-03-22T15:04:19;20.00;45.30
1716;DHT22;855;48.824;9.220;2024-03-22T15:06:46;19.80;45.50
1716;DHT22;855;48.824;9.220;2024-03-22T15:09:16;19.70;45.60
1716;DHT22;855;48.824;9.220;2024-03-22T15:11:44;19.60;45.70
1716;DHT22;855;48.824;9.220;2024-03-22T15:14:11;19.50;46.10
1716;DHT22;855;48.824;9.220;2024-03-22T15:16:38;19.70;46.20
1716;DHT22;855;48.824;9.220;2024-03-22T15:19:04;19.70;46.20
1716;DHT22;855;48.824;9.220;2024-03-22T15:21:31;19.80;46.10
1716;DHT22;855;48.824;9.220;2024-03-22T15:23:57;19.90;46.10
1716;DHT22;855;48.824;9.220;2024-03-22T15:26:24;19.90;46.30
1716;DHT22;855;48.824;9.220;2024-03-22T15:28:50;19.90;46.20
1716;DHT22;855;48.824;9.220;2024-03-22T15:31:18;19.80;46.50
1716;DHT22;855;48.824;9.220;2024-03-22T15:33:43;19.80;47.00
1716;DHT22;855;48.824;9.220;2024-03-22T15:36:10;19.60;46.70
1716;DHT22;855;48.824;9.220;2024-03-22T15:38:36;19.50;47.20
1716;DHT22;855;48.824;9.220;2024-03-22T15:41:03;19.50;48.10
1716;DHT22;855;48.824;9.220;2024-03-22T15:43:29;19.50;47.90
1716;DHT22;855;48.824;9.220;2024-03-22T15:45:56;19.50;48.40
1716;DHT22;855;48.824;9.220;2024-03-22T15:48:23;19.40;48.30
1716;DHT22;855;48.824;9.220;2024-03-22T15:50:50;19.40;48.70
1716;DHT22;855;48.824;9.220;2024-03-22T15:53:16;19.40;49.30
1716;DHT22;855;48.824;9.220;2024-03-22T15:55:43;19.50;49.10
1716;DHT22;855;48.824;9.220;2024-03-22T15:58:08;19.50;49.70
1716;DHT22;855;48.824;9.220;2024-03-22T16:00:35;19.70;49.30
1716;DHT22;855;48.824;9.220;2024-03-22T16:03:01;19.70;49.60
1716;DHT22;855;48.824;9.220;2024-03-22T16:05:29;19.80;49.10
1716;DHT22;855;48.824;9.220;2024-03-22T16:07:55;19.70;49.40
1716;DHT22;855;48.824;9.220;2024-03-22T16:10:22;19.60;49.40
1716;DHT22;855;48.824;9.220;2024-03-22T16:12:48;19.70;49.40
1716;DHT22;855;48.824;9.220;2024-03-22T16:15:14;19.70;49.30
1716;DHT22;855;48.824;9.220;2024-03-22T16:17:41;19.60;49.80
1716;DHT22;855;48.824;9.220;2024-03-22T16:20:09;19.70;49.70
1716;DHT22;855;48.824;9.220;2024-03-22T16:22:36;19.70;49.30